Aviation Digital Data Service (ADDS)

Output produced by METARs form (2225 UTC 20 August 2014)
found at http://aviationweather.gov/adds/metars/
 
KDAG 202150Z AUTO 00000KT 10SM FEW110 32/03 A2987 RMK AO2 SLP087 T03220028 TSNO
KDAG 201732Z 2018/2118 31008KT P6SM SCT110 BKN200 
     FM201900 07010KT P6SM VCSH BKN110 
     FM210300 26011KT P6SM BKN110
       
KEDW 202158Z 22005KT 70SM FEW100TCU FEW250 31/00 A2988 RMK AO2A CB DSNT SE TCU N-S AO2A SLP096 T03141000
TAF AMD KEDW 2022/2124 22009KT 9999 FEW120 QNH2986INS 
     TEMPO 2022/2103 VRB15G25KT 9000 -TSRA BKN100CB 
     BECMG 2103/2104 22009KT 9999 NSW FEW250 QNH2988INS 
     BECMG 2122/2123 22012G20KT 9999 FEW250 QNH2989INS TX34/2123Z TN19/2113Z AMD 202215
       
KVCV 202215Z AUTO 18020KT 10SM SCT110 27/06 A2995 RMK AO2
KONT 202153Z 22004KT 10SM TS BKN090 BKN250 29/11 A2990 RMK AO2 TSB49E50B51 SLP110 OCNL LTGCG DSNT SE TS DSNT SE SHRA NE CB DSNT NE-SE T02940111
KONT 202152Z 2022/2124 VRB05KT P6SM VCTS SCT090CB BKN150 
     FM202230 25011KT P6SM SCT090 BKN150 
     FM210400 24006KT P6SM FEW012 
     FM210900 VRB05KT P6SM BKN010 
     FM211600 VRB04KT P6SM FEW012 
     FM212100 25012KT P6SM SCT080
       
KNID 202156Z VRB06KT 10SM FEW270 32/03 A2989 RMK AO2 SLP099 T03220028 $
TAF KNID 2015/2115 19006KT 9999 FEW270 QNH2988INS 
     BECMG 2019/2021 16010G18KT 9999 FEW090 SCT270 QNH2982INS WND 120V210 
     FM210300 20008KT 9999 SKC QNH2985INS WND VRB05KT AFT 2112 T34/2023Z T17/2113Z
       
KSNA 202153Z 22008KT 10SM FEW040 SCT090 SCT230 27/15 A2990 RMK AO2 SLP124 CB DSNT N-E TCU DSNT E ACC SW-W ACSL N-E T02670150
KSNA 201726Z 2018/2118 13006KT P6SM BKN025 
     FM201900 22009KT P6SM SCT025 
     FM210200 20005KT P6SM SCT022 
     FM210400 VRB04KT P6SM BKN020 
     FM211700 VRB04KT P6SM SCT025
       
KSAN 202151Z 25007KT 210V290 10SM BKN140 BKN180 24/16 A2992 RMK AO2 SLP131 T02440156
KSAN 202028Z 2020/2124 25008KT P6SM FEW025 SCT050 BKN140 
     FM210100 VRB04KT P6SM FEW025 SCT050 
     FM210400 VRB04KT P6SM BKN020 
     FM211600 VRB04KT P6SM FEW020 
     FM211900 28009KT P6SM SKC
       
KNXP 202156Z 19009KT 10SM TS BKN050 BKN100CB 31/12 A2997 RMK AO2 PK WND 17029/2135 RAB39E54 SLP111 OCNL LTGICCA VC TS SW MOV NE P0002 T03060117
TAF KNXP 2021/2121 VRB06KT 9999 BKN050 BKN100CB QNH2987INS 
     TEMPO 2021/2023 16010G15KT 9000 -TSRA 
     FM202300 24010KT 9999 VCTS SCT120 QNH2985INS 
     BECMG 2104/2106 32007KT 9999 NSW SCT120 QNH2987INS T34/2023Z T24/2113Z
       
KPSP 202153Z 33011KT 10SM FEW050 SCT100 36/09 A2982 RMK AO2 SLP093 T03560094
KPSP 201726Z 2018/2118 33012KT P6SM VCSH SCT100 
     FM201900 VRB06KT P6SM VCSH SCT100 
     FM202100 VRB06KT P6SM VCTS SCT090CB BKN120 
     FM210000 33011KT P6SM SCT100 SCT150 
     FM210600 VRB06KT P6SM FEW100
       
KLAX 202153Z 27012KT 10SM SCT030 SCT100 24/15 A2991 RMK AO2 SLP127 T02440150
KLAX 202050Z 2021/2124 25015KT P6SM FEW030 
     FM202300 26012KT P6SM SCT025 BKN100 
     FM210400 26006KT P6SM BKN025 
     FM210800 VRB03KT P6SM OVC020 
     FM211700 26006KT P6SM SCT025 
     FM212000 26012KT P6SM SKC
       
KCNO 202153Z COR 26005KT 10SM BKN085 31/13 A2990 RMK AO2 LTG DSNT NE AND E SLP119 T03060133 $
KSMO 202151Z 24007KT 10SM CLR 25/14 A2991 RMK AO2 SLP127 T02500144
KLGB 202153Z VRB06KT 10SM SCT100 25/16 A2990 RMK AO2 SLP124 T02500156
KLGB 201726Z 2018/2118 VRB03KT P6SM SCT029 
     FM201900 19007KT P6SM SCT100 
     FM210200 29007KT P6SM FEW025 
     FM210600 VRB03KT P6SM OVC022
       
KVNY 202151Z 15010G15KT 10SM CLR 29/11 A2989 RMK AO2 SLP113 T02890111
KVNY 201726Z 2018/2118 VRB06KT P6SM SCT024 SCT100 
     FM201900 15008KT P6SM SCT100 
     FM210300 VRB03KT P6SM SCT100 
     FM210600 VRB03KT P6SM OVC017 
     FM211100 VRB03KT P6SM OVC022
       
KBUR 202153Z 17005G14KT 10SM CLR 27/13 A2990 RMK AO2 SLP111 T02670133
KBUR 201726Z 2018/2118 VRB05KT P6SM SCT024 SCT100 
     FM201900 18010KT P6SM SCT100 
     FM210300 VRB03KT P6SM SCT100 
     FM210600 VRB03KT P6SM OVC017 
     FM211100 VRB03KT P6SM OVC022
       
KBFL 202154Z 30010G20KT 10SM CLR 33/08 A2982 RMK AO2 SLP091 T03330083
KBFL 201720Z 2018/2118 32011KT P6SM SCT200
       
KPMD 202153Z AUTO 00000KT 10SM SCT095 29/05 A2992 RMK AO2 SLP106 T02940050 TSNO
KPMD 201726Z 2018/2118 36003KT P6SM SKC 
     FM202000 23010KT P6SM SCT080 
     FM202200 24014KT P6SM VCTS SCT080CB BKN120 
     FM210300 24012KT P6SM SCT100 
     FM210800 21006KT P6SM FEW100
       
KOXR 202151Z 29012KT 10SM CLR 24/15 A2991 RMK AO2 SLPNO T02390150
KOXR 201726Z 2018/2118 28009KT P6SM FEW100 
     FM202000 26010KT P6SM FEW100 
     FM210400 VRB03KT P6SM OVC015 
     FM211200 VRB03KT P6SM OVC020
       
KWJF 202156Z 24012G17KT 10SM CLR 30/05 A2992 RMK AO2 SLP112 T03000050
KWJF 202103Z 2021/2118 28010G17KT P6SM SKC 
     FM202200 24018G25KT P6SM VCTS SCT080CB BKN120 
     FM210300 24014KT P6SM SCT100 
     FM210700 25010KT P6SM FEW120
       
KCMA 202155Z 22007G15KT 10SM CLR 26/14 A2990 RMK AO2 SLP132 T02560144
KFAT 202153Z 30005KT 10SM FEW080 33/11 A2985 RMK AO2 SLP105 MTNS OBSC FU HZ DSNT N-E-S CU DSNT E T03330111
KFAT 201720Z 2018/2118 30008KT P6SM FEW120 BKN200
       
KEED 202156Z AUTO 21010G15KT 180V240 10SM CLR 38/07 A2981 RMK AO2 SLP059 T03780067
KEED 201732Z 2018/2118 VRB05KT P6SM FEW120 
     FM202100 19010G20KT P6SM VCTS SCT080CB BKN120 
     FM210400 22008KT P6SM SCT120
       
KLSV 202158Z AUTO 13016KT 10SM CLR 32/09 A2986 RMK AO2 LTG DSNT E SLP088 T03160091 $
TAF KLSV 2017/2123 14009KT 9999 SCT170 QNH2989INS 
     BECMG 2019/2020 16012G18KT 9999 SCT080 SCT150 QNH2981INS 
     TEMPO 2021/2024 VRB15G25KT VCTS BKN080CB 
     BECMG 2101/2102 19009KT 9999 SCT080 QNH2982INS 
     BECMG 2117/2118 13009KT 9999 SCT100 QNH2991INS TX34/2022Z TN23/2112Z
       
KLAS 202156Z 13010KT 10SM FEW090 SCT120 BKN220 33/07 A2985 RMK AO2 LTG DSNT E AND SE SLP080 SH DSNT NE AND SE CB DSNT NE AND SE MOV NE ACC DSNT E T03330067
KLAS 202224Z 2022/2118 14008KT P6SM VCTS SCT080CB SCT120 
     FM202300 18015G25KT P6SM -TSRA BKN080CB BKN120 
     FM210000 19010KT P6SM SCT090 SCT120 
     FM210800 20007KT P6SM SCT120
       
KHII 202210Z AUTO 16007KT 100V160 10SM CLR 37/09 A2979 RMK AO2
KIFP 202215Z AUTO 24008G16KT 10SM CLR 37/10 A2980 RMK AO2 PWINO